createdAt,value
2022-09-13T00:00:16.952Z,5.00
2022-09-13T00:02:44.846Z,5.30
2022-09-13T00:05:13.240Z,5.00
2022-09-13T00:07:41.088Z,4.77
2022-09-13T00:10:09.940Z,5.30
2022-09-13T00:12:37.820Z,5.10
2022-09-13T00:15:08.768Z,5.00
2022-09-13T00:17:37.329Z,4.60
2022-09-13T00:20:06.077Z,4.50
2022-09-13T00:22:34.311Z,4.93
2022-09-13T00:25:02.219Z,4.57
2022-09-13T00:27:30.196Z,5.63
2022-09-13T00:29:58.276Z,5.63
2022-09-13T00:32:27.521Z,5.07
2022-09-13T00:34:55.373Z,5.10
2022-09-13T00:37:23.220Z,5.30
2022-09-13T00:39:51.133Z,5.37
2022-09-13T00:42:19.414Z,5.17
2022-09-13T00:44:55.124Z,5.83
2022-09-13T00:47:33.059Z,5.33
2022-09-13T00:50:08.471Z,5.13
2022-09-13T00:52:41.873Z,5.23
2022-09-13T00:55:21.447Z,5.87
2022-09-13T00:57:50.127Z,5.33
2022-09-13T01:00:20.662Z,5.47
2022-09-13T01:02:53.649Z,5.00
2022-09-13T01:05:27.749Z,5.37
2022-09-13T01:07:57.768Z,4.97
2022-09-13T01:10:26.582Z,5.37
2022-09-13T01:13:00.606Z,5.03
2022-09-13T01:15:28.846Z,5.13
2022-09-13T01:17:58.436Z,5.93
2022-09-13T01:20:38.441Z,5.00
2022-09-13T01:23:30.336Z,5.50
2022-09-13T01:26:37.190Z,5.00
2022-09-13T01:29:26.594Z,5.70
2022-09-13T01:32:05.924Z,5.47
2022-09-13T01:34:43.500Z,5.70
2022-09-13T01:37:28.951Z,5.03
2022-09-13T01:40:07.463Z,5.73
2022-09-13T01:42:50.021Z,6.57
2022-09-13T01:45:29.242Z,6.17
2022-09-13T01:48:02.942Z,6.23
2022-09-13T01:50:38.944Z,6.60
2022-09-13T01:53:14.522Z,5.30
2022-09-13T01:55:47.593Z,5.30
2022-09-13T01:58:24.258Z,5.60
2022-09-13T02:01:01.454Z,6.20
2022-09-13T02:03:37.952Z,5.80
2022-09-13T02:06:10.041Z,5.43
2022-09-13T02:08:41.673Z,5.60
2022-09-13T02:11:12.115Z,5.27
2022-09-13T02:13:44.288Z,5.33
2022-09-13T02:16:19.247Z,5.63
2022-09-13T02:18:52.741Z,6.30
2022-09-13T02:21:25.011Z,5.30
2022-09-13T02:23:56.423Z,5.40
2022-09-13T02:26:26.336Z,5.43
2022-09-13T02:28:59.027Z,5.20
2022-09-13T02:31:35.270Z,5.90
2022-09-13T02:34:10.257Z,5.50
2022-09-13T02:36:41.625Z,5.77
2022-09-13T02:39:13.811Z,6.10
2022-09-13T02:41:49.335Z,5.50
2022-09-13T02:44:25.128Z,5.83
2022-09-13T02:47:07.921Z,5.80
2022-09-13T02:49:51.563Z,5.17
2022-09-13T02:52:27.431Z,5.83
2022-09-13T02:54:59.165Z,6.10
2022-09-13T02:57:33.880Z,5.63
2022-09-13T03:00:01.954Z,5.93
2022-09-13T03:02:34.360Z,6.80
2022-09-13T03:07:31.284Z,5.93
2022-09-13T03:10:06.418Z,6.20
2022-09-13T03:12:58.307Z,6.10
2022-09-13T03:15:39.465Z,5.93
2022-09-13T03:18:18.107Z,5.83
2022-09-13T03:20:56.216Z,5.93
2022-09-13T03:23:56.686Z,6.23
2022-09-13T03:26:36.068Z,5.73
2022-09-13T03:29:18.360Z,7.27
2022-09-13T03:31:53.869Z,6.57
2022-09-13T03:34:31.606Z,6.30
2022-09-13T03:37:07.560Z,6.40
2022-09-13T03:39:43.353Z,6.57
2022-09-13T03:42:19.528Z,6.77
2022-09-13T03:44:50.310Z,5.93
2022-09-13T03:47:19.344Z,6.30
2022-09-13T03:49:47.436Z,6.50
2022-09-13T03:52:15.478Z,6.10
2022-09-13T03:54:44.684Z,5.53
2022-09-13T03:57:15.178Z,5.77
2022-09-13T03:59:48.266Z,6.30
2022-09-13T04:02:17.529Z,6.23
2022-09-13T04:04:47.014Z,8.73
2022-09-13T04:07:18.136Z,7.73
2022-09-13T04:09:47.586Z,11.33
2022-09-13T04:12:16.191Z,8.07
2022-09-13T04:14:44.838Z,6.43
2022-09-13T04:17:13.103Z,6.33
2022-09-13T04:19:41.627Z,6.90
2022-09-13T04:22:09.455Z,7.60
2022-09-13T04:24:38.764Z,8.10
2022-09-13T04:27:08.406Z,6.73
2022-09-13T04:29:36.474Z,5.70
2022-09-13T04:32:04.718Z,6.43
2022-09-13T04:34:32.569Z,5.97
2022-09-13T04:37:00.429Z,6.60
2022-09-13T04:39:28.261Z,5.90
2022-09-13T04:41:56.852Z,5.60
2022-09-13T04:44:26.079Z,6.47
2022-09-13T04:46:53.945Z,6.20
2022-09-13T04:49:21.991Z,5.60
2022-09-13T04:51:50.669Z,5.73
2022-09-13T04:54:18.896Z,5.80
2022-09-13T04:56:47.057Z,6.37
2022-09-13T04:59:15.632Z,6.20
2022-09-13T05:01:45.091Z,15.47
2022-09-13T05:04:13.607Z,8.63
2022-09-13T05:06:41.555Z,5.93
2022-09-13T05:09:14.824Z,6.07
2022-09-13T05:11:43.139Z,5.97
2022-09-13T05:14:12.646Z,6.17
2022-09-13T05:16:40.703Z,6.33
2022-09-13T05:19:11.203Z,6.17
2022-09-13T05:21:39.308Z,6.13
2022-09-13T05:24:07.343Z,5.93
2022-09-13T05:26:35.312Z,6.10
2022-09-13T05:29:05.744Z,6.27
2022-09-13T05:31:36.381Z,6.57
2022-09-13T05:34:06.600Z,6.43
2022-09-13T05:36:35.983Z,6.10
2022-09-13T05:39:29.218Z,6.40
2022-09-13T05:41:52.437Z,5.47
2022-09-13T05:44:20.385Z,5.40
2022-09-13T05:46:48.833Z,6.03
2022-09-13T05:49:17.110Z,5.40
2022-09-13T05:51:46.424Z,5.60
2022-09-13T05:54:14.426Z,6.93
2022-09-13T05:56:42.336Z,5.80
2022-09-13T05:59:13.546Z,6.20
2022-09-13T06:01:41.751Z,5.60
2022-09-13T06:04:09.646Z,6.00
2022-09-13T06:06:37.963Z,5.87
2022-09-13T06:09:08.665Z,6.30
2022-09-13T06:11:36.555Z,5.87
2022-09-13T06:14:04.792Z,5.70
2022-09-13T06:16:32.745Z,6.00
2022-09-13T06:19:01.035Z,7.03
2022-09-13T06:21:29.516Z,6.97
2022-09-13T06:23:57.847Z,6.80
2022-09-13T06:26:28.987Z,6.57
2022-09-13T06:28:58.297Z,5.90
2022-09-13T06:31:28.872Z,5.87
2022-09-13T06:33:58.591Z,6.20
2022-09-13T06:36:26.770Z,6.40
2022-09-13T06:38:54.585Z,7.00
2022-09-13T06:41:24.642Z,5.90
2022-09-13T06:43:57.558Z,6.43
2022-09-13T06:46:26.935Z,6.27
2022-09-13T06:48:55.616Z,6.60
2022-09-13T06:51:26.041Z,7.17
2022-09-13T06:53:56.518Z,7.20
2022-09-13T06:56:26.330Z,6.57
2022-09-13T06:58:57.995Z,6.90
2022-09-13T07:01:28.170Z,7.50
2022-09-13T07:03:59.592Z,6.63
2022-09-13T07:06:30.023Z,7.87
2022-09-13T07:08:59.616Z,7.03
2022-09-13T07:11:30.310Z,7.40
2022-09-13T07:14:00.993Z,7.00
2022-09-13T07:16:30.384Z,6.13
2022-09-13T07:19:00.226Z,7.07
2022-09-13T07:21:29.302Z,6.43
2022-09-13T07:23:57.797Z,6.60
2022-09-13T07:26:27.884Z,6.23
2022-09-13T07:28:57.763Z,7.17
2022-09-13T07:31:28.827Z,7.90
2022-09-13T07:33:57.907Z,6.93
2022-09-13T07:36:27.078Z,7.30
2022-09-13T07:38:55.072Z,7.27
2022-09-13T07:41:24.623Z,8.13
2022-09-13T07:43:53.422Z,8.07
2022-09-13T07:46:23.289Z,7.57
2022-09-13T07:48:54.493Z,7.90
2022-09-13T07:51:24.454Z,8.00
2022-09-13T07:53:57.321Z,7.53
2022-09-13T07:56:27.190Z,7.07
2022-09-13T07:58:55.851Z,7.53
2022-09-13T08:01:25.126Z,7.40
2022-09-13T08:03:55.619Z,7.90
2022-09-13T08:06:24.227Z,7.67
2022-09-13T08:08:53.207Z,8.83
2022-09-13T08:11:23.167Z,7.90
2022-09-13T08:13:52.688Z,8.50
2022-09-13T08:16:22.236Z,8.73
2022-09-13T08:18:52.039Z,7.90
2022-09-13T08:21:21.873Z,8.47
2022-09-13T08:23:50.006Z,7.70
2022-09-13T08:26:18.557Z,9.33
2022-09-13T08:28:47.029Z,9.07
2022-09-13T08:31:18.087Z,8.73
2022-09-13T08:33:47.418Z,9.50
2022-09-13T08:36:16.891Z,9.83
2022-09-13T08:38:48.905Z,9.03
2022-09-13T08:41:37.234Z,9.30
2022-09-13T08:44:11.921Z,8.30
2022-09-13T08:46:42.958Z,8.33
2022-09-13T08:49:16.684Z,8.27
2022-09-13T08:51:48.884Z,8.63
2022-09-13T08:54:20.245Z,9.43
2022-09-13T08:56:56.478Z,9.10
2022-09-13T08:59:50.984Z,10.00
2022-09-13T09:02:39.842Z,9.83
2022-09-13T09:05:18.116Z,9.13
2022-09-13T09:07:48.506Z,9.37
2022-09-13T09:10:20.457Z,10.17
2022-09-13T09:12:54.583Z,10.20
2022-09-13T09:15:25.527Z,9.87
2022-09-13T09:17:58.554Z,9.30
2022-09-13T09:20:32.839Z,10.90
2022-09-13T09:23:06.106Z,12.13
2022-09-13T09:25:35.816Z,11.37
2022-09-13T09:28:13.183Z,11.23
2022-09-13T09:30:50.684Z,11.60
2022-09-13T09:33:32.391Z,11.53
2022-09-13T09:36:04.803Z,11.70
2022-09-13T09:38:42.730Z,11.20
2022-09-13T09:41:24.577Z,11.80
2022-09-13T09:44:00.165Z,13.07
2022-09-13T09:46:32.381Z,13.17
2022-09-13T09:49:28.677Z,12.50
2022-09-13T09:51:57.507Z,13.00
2022-09-13T09:54:29.024Z,13.70
2022-09-13T09:56:58.238Z,15.10
2022-09-13T09:59:32.506Z,14.50
2022-09-13T10:02:01.911Z,14.43
2022-09-13T10:04:30.783Z,14.03
2022-09-13T10:07:25.216Z,15.20
2022-09-13T10:09:59.668Z,13.50
2022-09-13T10:12:33.811Z,14.30
2022-09-13T10:15:08.022Z,15.00
2022-09-13T10:17:36.351Z,13.53
2022-09-13T10:20:21.271Z,14.50
2022-09-13T10:23:12.101Z,13.73
2022-09-13T10:25:44.810Z,13.50
2022-09-13T10:28:20.356Z,12.43
2022-09-13T10:30:55.755Z,12.07
2022-09-13T10:33:28.537Z,12.03
2022-09-13T10:36:00.396Z,12.07
2022-09-13T10:38:32.821Z,11.97
2022-09-13T10:41:04.407Z,12.60
2022-09-13T10:43:35.014Z,11.27
2022-09-13T10:46:05.823Z,11.40
2022-09-13T10:48:47.013Z,10.27
2022-09-13T10:51:32.299Z,9.30
2022-09-13T10:54:10.992Z,9.40
2022-09-13T10:56:39.212Z,10.60
2022-09-13T10:59:22.540Z,9.40
2022-09-13T11:02:13.894Z,9.60
2022-09-13T11:04:58.042Z,9.67
2022-09-13T11:07:41.331Z,9.37
2022-09-13T11:10:15.584Z,8.20
2022-09-13T11:12:52.100Z,7.70
2022-09-13T11:15:32.450Z,8.73
2022-09-13T11:18:40.222Z,7.97
2022-09-13T11:21:22.725Z,7.47
2022-09-13T11:24:12.988Z,7.93
2022-09-13T11:26:52.136Z,9.27
2022-09-13T11:29:37.467Z,8.77
2022-09-13T11:32:20.904Z,8.23
2022-09-13T11:35:05.818Z,7.50
2022-09-13T11:37:46.645Z,8.30
2022-09-13T11:40:32.753Z,8.13
2022-09-13T11:43:18.460Z,6.60
2022-09-13T11:45:55.735Z,8.00
2022-09-13T11:49:02.416Z,7.53
2022-09-13T11:51:40.843Z,7.20
2022-09-13T11:54:19.988Z,6.03
2022-09-13T11:56:51.008Z,5.70
2022-09-13T11:59:30.876Z,5.97
2022-09-13T12:02:03.257Z,4.67
2022-09-13T12:04:37.907Z,5.10
2022-09-13T12:07:13.440Z,5.60
2022-09-13T12:09:48.855Z,4.77
2022-09-13T12:12:17.083Z,5.57
2022-09-13T12:14:50.301Z,5.33
2022-09-13T12:17:28.231Z,6.00
2022-09-13T12:20:00.219Z,5.50
2022-09-13T12:22:31.459Z,5.50
2022-09-13T12:25:03.404Z,4.70
2022-09-13T12:27:40.099Z,6.30
2022-09-13T12:30:16.229Z,5.83
2022-09-13T12:32:46.137Z,6.60
2022-09-13T12:35:25.309Z,5.87
2022-09-13T12:38:33.130Z,6.73
2022-09-13T12:41:23.151Z,7.40
2022-09-13T12:44:21.192Z,7.90
2022-09-13T12:47:17.289Z,8.60
2022-09-13T12:50:21.631Z,8.40
2022-09-13T12:53:02.039Z,8.43
2022-09-13T12:55:54.962Z,8.80
2022-09-13T12:58:50.233Z,9.50
2022-09-13T13:01:21.252Z,7.87
2022-09-13T13:03:54.614Z,8.70
2022-09-13T13:06:35.688Z,8.50
2022-09-13T13:09:08.079Z,7.80
2022-09-13T13:11:45.793Z,7.90
2022-09-13T13:14:47.107Z,7.57
2022-09-13T13:17:38.204Z,7.10
2022-09-13T13:20:41.925Z,7.50
2022-09-13T13:23:26.965Z,5.77
2022-09-13T13:26:13.555Z,5.20
2022-09-13T13:29:06.851Z,5.03
2022-09-13T13:31:40.595Z,4.37
2022-09-13T13:34:28.912Z,4.80
2022-09-13T13:37:02.108Z,4.60
2022-09-13T13:39:41.818Z,5.67
2022-09-13T13:42:25.148Z,6.57
2022-09-13T13:45:19.191Z,4.20
2022-09-13T13:48:15.214Z,5.13
2022-09-13T13:51:28.715Z,4.70
2022-09-13T13:54:01.894Z,4.60
2022-09-13T13:56:36.367Z,4.93
2022-09-13T13:59:12.831Z,5.60
2022-09-13T14:01:47.568Z,4.60
2022-09-13T14:04:57.392Z,5.17
2022-09-13T14:08:06.175Z,5.23
2022-09-13T14:10:45.314Z,3.90
2022-09-13T14:13:39.526Z,5.27
2022-09-13T14:16:14.136Z,5.20
2022-09-13T14:19:06.914Z,5.20
2022-09-13T14:21:35.201Z,5.20
2022-09-13T14:24:16.424Z,4.93
2022-09-13T14:26:44.542Z,5.40
2022-09-13T14:29:18.975Z,5.00
2022-09-13T14:31:49.670Z,4.57
2022-09-13T14:34:28.107Z,4.27
2022-09-13T14:36:58.603Z,5.23
2022-09-13T14:39:27.797Z,5.40
2022-09-13T14:42:04.023Z,5.07
2022-09-13T14:44:32.157Z,5.33
2022-09-13T14:47:07.799Z,4.47
2022-09-13T14:49:44.454Z,5.20
2022-09-13T14:52:22.385Z,4.60
2022-09-13T14:54:54.333Z,4.50
2022-09-13T14:57:28.741Z,5.27
2022-09-13T14:59:58.975Z,4.80
2022-09-13T15:02:31.908Z,5.17
2022-09-13T15:05:02.312Z,4.63
2022-09-13T15:07:33.927Z,4.20
2022-09-13T15:10:09.181Z,4.40
2022-09-13T15:12:37.851Z,3.20
2022-09-13T15:15:43.749Z,3.73
2022-09-13T15:18:26.924Z,3.30
2022-09-13T15:20:58.015Z,4.83
2022-09-13T15:23:28.060Z,4.30
2022-09-13T15:25:57.889Z,3.43
2022-09-13T15:28:28.515Z,3.10
2022-09-13T15:30:59.183Z,3.83
2022-09-13T15:33:30.952Z,3.53
2022-09-13T15:36:17.519Z,3.80
2022-09-13T15:39:01.031Z,5.00
2022-09-13T15:41:33.983Z,4.50
2022-09-13T15:44:03.069Z,3.97
2022-09-13T15:46:31.291Z,4.17
2022-09-13T15:49:03.323Z,4.40
2022-09-13T15:51:34.436Z,4.30
2022-09-13T15:54:12.002Z,4.50
2022-09-13T15:56:43.291Z,4.27
2022-09-13T15:59:15.175Z,3.53
2022-09-13T16:01:43.743Z,3.67
2022-09-13T16:04:13.484Z,3.53
2022-09-13T16:06:42.283Z,4.10
2022-09-13T16:09:18.394Z,4.83
2022-09-13T16:11:46.977Z,4.67
2022-09-13T16:14:14.891Z,4.00
2022-09-13T16:16:43.069Z,3.80
2022-09-13T16:19:16.174Z,3.87
2022-09-13T16:21:44.150Z,4.23
2022-09-13T16:24:12.211Z,4.90
2022-09-13T16:26:41.071Z,4.03
2022-09-13T16:29:09.403Z,5.63
2022-09-13T16:31:40.515Z,4.70
2022-09-13T16:34:09.089Z,5.40
2022-09-13T16:36:38.279Z,5.07
2022-09-13T16:39:06.569Z,4.53
2022-09-13T16:41:34.432Z,4.57
2022-09-13T16:44:05.050Z,4.70
2022-09-13T16:46:33.550Z,4.60
2022-09-13T16:49:01.898Z,3.90
2022-09-13T16:51:29.802Z,4.70
2022-09-13T16:53:59.154Z,4.30
2022-09-13T16:56:27.660Z,5.17
2022-09-13T16:58:55.656Z,5.40
2022-09-13T17:01:25.968Z,5.10
2022-09-13T17:03:55.141Z,3.87
2022-09-13T17:06:24.850Z,4.83
2022-09-13T17:08:55.386Z,5.00
2022-09-13T17:11:26.269Z,5.07
2022-09-13T17:13:55.214Z,4.43
2022-09-13T17:16:27.149Z,4.90
2022-09-13T17:19:13.094Z,5.33
2022-09-13T17:21:41.375Z,5.60
2022-09-13T17:24:13.432Z,5.63
2022-09-13T17:26:43.612Z,6.33
2022-09-13T17:29:13.114Z,6.13
2022-09-13T17:31:43.205Z,6.23
2022-09-13T17:34:11.548Z,5.40
2022-09-13T17:36:39.881Z,5.60
2022-09-13T17:39:08.667Z,5.10
2022-09-13T17:41:37.313Z,7.40
2022-09-13T17:44:06.596Z,7.40
2022-09-13T17:46:34.697Z,6.07
2022-09-13T17:49:02.709Z,6.53
2022-09-13T17:51:32.134Z,7.07
2022-09-13T17:54:05.766Z,6.17
2022-09-13T17:56:36.289Z,7.43
2022-09-13T17:59:10.531Z,7.47
2022-09-13T18:01:40.035Z,6.13
2022-09-13T18:04:08.716Z,6.90
2022-09-13T18:06:36.828Z,6.97
2022-09-13T18:09:05.315Z,8.17
2022-09-13T18:11:41.301Z,7.83
2022-09-13T18:14:28.558Z,7.57
2022-09-13T18:17:03.352Z,7.33
2022-09-13T18:19:45.822Z,6.13
2022-09-13T18:22:14.102Z,6.33
2022-09-13T18:24:42.147Z,6.37
2022-09-13T18:27:10.075Z,5.80
2022-09-13T18:29:39.351Z,5.30
2022-09-13T18:32:07.659Z,4.60
2022-09-13T18:34:35.616Z,4.90
2022-09-13T18:37:03.544Z,4.13
2022-09-13T18:39:31.563Z,4.27
2022-09-13T18:42:01.073Z,4.67
2022-09-13T18:44:30.321Z,4.37
2022-09-13T18:47:00.601Z,4.27
2022-09-13T18:49:28.622Z,4.70
2022-09-13T18:51:56.705Z,4.40
2022-09-13T18:54:24.683Z,5.70
2022-09-13T18:56:55.549Z,4.87
2022-09-13T18:59:23.516Z,5.40
2022-09-13T19:01:51.903Z,5.03
2022-09-13T19:04:21.670Z,5.27
2022-09-13T19:06:51.720Z,5.30
2022-09-13T19:09:20.968Z,5.30
2022-09-13T19:11:50.413Z,5.17
2022-09-13T19:14:20.105Z,5.13
2022-09-13T19:16:48.397Z,4.90
2022-09-13T19:19:16.732Z,5.47
2022-09-13T19:21:46.298Z,5.90
2022-09-13T19:24:20.385Z,5.70
2022-09-13T19:26:50.718Z,5.07
2022-09-13T19:29:23.981Z,5.37
2022-09-13T19:31:53.418Z,5.40
2022-09-13T19:34:22.709Z,5.37
2022-09-13T19:36:57.437Z,5.70
2022-09-13T19:39:29.227Z,6.17
2022-09-13T19:41:58.366Z,6.20
2022-09-13T19:44:26.475Z,5.90
2022-09-13T19:47:23.721Z,5.83
2022-09-13T19:49:42.392Z,5.77
2022-09-13T19:52:11.802Z,5.10
2022-09-13T19:54:40.002Z,5.13
2022-09-13T19:57:09.841Z,5.43
2022-09-13T19:59:37.767Z,4.57
2022-09-13T20:02:06.064Z,4.27
2022-09-13T20:04:34.089Z,4.90
2022-09-13T20:07:02.755Z,4.67
2022-09-13T20:09:32.473Z,4.63
2022-09-13T20:12:01.054Z,3.90
2022-09-13T20:14:28.996Z,3.60
2022-09-13T20:16:57.187Z,3.80
2022-09-13T20:19:43.764Z,4.33
2022-09-13T20:22:13.033Z,4.00
2022-09-13T20:24:43.169Z,3.50
2022-09-13T20:27:11.090Z,3.63
2022-09-13T20:29:38.941Z,3.90
2022-09-13T20:32:06.853Z,4.10
2022-09-13T20:34:35.500Z,3.40
2022-09-13T20:37:03.371Z,3.00
2022-09-13T20:39:31.284Z,3.10
2022-09-13T20:42:06.004Z,3.10
2022-09-13T20:44:33.859Z,3.07
2022-09-13T20:47:01.766Z,3.20
2022-09-13T20:49:30.173Z,3.50
2022-09-13T20:51:58.028Z,2.90
2022-09-13T20:54:25.966Z,3.40
2022-09-13T20:56:54.287Z,3.53
2022-09-13T20:59:23.528Z,3.53
2022-09-13T21:01:51.419Z,3.03
2022-09-13T21:04:19.391Z,2.80
2022-09-13T21:07:01.177Z,3.03
2022-09-13T21:09:29.552Z,3.03
2022-09-13T21:11:57.423Z,3.03
2022-09-13T21:14:26.647Z,3.23
2022-09-13T21:16:55.064Z,3.43
2022-09-13T21:19:23.135Z,3.40
2022-09-13T21:21:51.516Z,3.10
2022-09-13T21:24:19.738Z,3.00
2022-09-13T21:26:47.748Z,3.03
2022-09-13T21:29:15.642Z,3.17
2022-09-13T21:31:44.798Z,3.20
2022-09-13T21:34:15.074Z,3.00
2022-09-13T21:36:43.827Z,3.27
2022-09-13T21:39:12.599Z,3.37
2022-09-13T21:41:40.962Z,3.33
2022-09-13T21:44:09.192Z,4.03
2022-09-13T21:46:39.186Z,4.03
2022-09-13T21:49:10.123Z,3.90
2022-09-13T21:51:39.480Z,4.57
2022-09-13T21:54:09.212Z,3.93
2022-09-13T21:56:39.753Z,4.47
2022-09-13T21:59:10.029Z,4.00
2022-09-13T22:01:39.656Z,4.23
2022-09-13T22:04:11.059Z,4.17
2022-09-13T22:06:38.982Z,4.67
2022-09-13T22:09:08.678Z,4.77
2022-09-13T22:11:39.423Z,4.27
2022-09-13T22:14:09.755Z,3.87
2022-09-13T22:16:39.487Z,4.13
2022-09-13T22:19:11.359Z,4.53
2022-09-13T22:21:42.455Z,4.10
2022-09-13T22:24:14.203Z,4.13
2022-09-13T22:26:42.467Z,4.50
2022-09-13T22:29:10.977Z,4.57
2022-09-13T22:31:40.432Z,4.33
2022-09-13T22:34:13.207Z,4.30
2022-09-13T22:36:41.391Z,4.63
2022-09-13T22:39:11.226Z,4.83
2022-09-13T22:41:39.146Z,4.50
2022-09-13T22:44:07.640Z,4.60
2022-09-13T22:46:37.438Z,4.23
2022-09-13T22:49:06.751Z,4.50
2022-09-13T22:51:35.975Z,4.13
2022-09-13T22:54:07.134Z,4.23
2022-09-13T22:56:36.579Z,4.30
2022-09-13T22:59:07.059Z,3.90
2022-09-13T23:01:35.600Z,3.80
2022-09-13T23:04:04.434Z,4.17
2022-09-13T23:06:32.660Z,3.80
2022-09-13T23:09:05.775Z,3.73
2022-09-13T23:11:35.770Z,4.10
2022-09-13T23:14:05.855Z,3.37
2022-09-13T23:16:36.106Z,3.63
2022-09-13T23:19:04.310Z,3.63
2022-09-13T23:21:34.010Z,3.47
2022-09-13T23:24:05.471Z,3.37
2022-09-13T23:26:33.415Z,3.10
2022-09-13T23:29:03.409Z,3.40
2022-09-13T23:31:34.169Z,3.00
2022-09-13T23:34:04.371Z,3.27
2022-09-13T23:36:34.575Z,4.00
2022-09-13T23:39:05.625Z,3.50
2022-09-13T23:41:34.090Z,4.53
2022-09-13T23:44:02.534Z,4.63
2022-09-13T23:46:30.966Z,5.03
2022-09-13T23:48:58.929Z,5.13
2022-09-13T23:51:28.132Z,4.23
2022-09-13T23:53:57.750Z,4.03
2022-09-13T23:56:29.582Z,5.23
2022-09-13T23:58:58.842Z,4.57
